sensor_id;sensor_type;location;lat;lon;timestamp;temperature;humidity
28761;DHT22;15917;50.014;8.352;2022-07-21T00:00:41;22.90;99.90
28761;DHT22;15917;50.014;8.352;2022-07-21T00:03:06;22.90;99.90
28761;DHT22;15917;50.014;8.352;2022-07-21T00:05:32;23.00;99.90
28761;DHT22;15917;50.014;8.352;2022-07-21T00:07:58;23.00;99.90
28761;DHT22;15917;50.014;8.352;2022-07-21T00:10:25;23.00;99.90
28761;DHT22;15917;50.014;8.352;2022-07-21T00:12:51;23.00;99.90
28761;DHT22;15917;50.014;8.352;2022-07-21T00:15:19;23.00;99.90
28761;DHT22;15917;50.014;8.352;2022-07-21T00:17:45;23.00;99.90
28761;DHT22;15917;50.014;8.352;2022-07-21T00:20:13;22.90;99.90
28761;DHT22;15917;50.014;8.352;2022-07-21T00:22:39;23.00;99.90
28761;DHT22;15917;50.014;8.352;2022-07-21T00:25:06;23.00;99.90
28761;DHT22;15917;50.014;8.352;2022-07-21T00:27:32;22.90;99.90
28761;DHT22;15917;50.014;8.352;2022-07-21T00:29:58;22.90;99.90
28761;DHT22;15917;50.014;8.352;2022-07-21T00:32:24;22.90;99.90
28761;DHT22;15917;50.014;8.352;2022-07-21T00:34:49;23.00;99.90
28761;DHT22;15917;50.014;8.352;2022-07-21T00:37:15;23.00;99.90
28761;DHT22;15917;50.014;8.352;2022-07-21T00:39:40;22.90;99.90
28761;DHT22;15917;50.014;8.352;2022-07-21T00:42:06;23.00;99.90
28761;DHT22;15917;50.014;8.352;2022-07-21T00:44:32;22.90;99.90
28761;DHT22;15917;50.014;8.352;2022-07-21T00:46:58;22.80;99.90
28761;DHT22;15917;50.014;8.352;2022-07-21T00:49:24;22.80;99.90
28761;DHT22;15917;50.014;8.352;2022-07-21T00:51:51;22.80;99.90
28761;DHT22;15917;50.014;8.352;2022-07-21T00:54:18;22.80;99.90
28761;DHT22;15917;50.014;8.352;2022-07-21T00:56:44;22.70;99.90
28761;DHT22;15917;50.014;8.352;2022-07-21T00:59:10;22.80;99.90
28761;DHT22;15917;50.014;8.352;2022-07-21T01:01:36;22.90;99.90
28761;DHT22;15917;50.014;8.352;2022-07-21T01:04:02;22.80;99.90
28761;DHT22;15917;50.014;8.352;2022-07-21T01:06:28;22.80;99.90
28761;DHT22;15917;50.014;8.352;2022-07-21T01:08:54;22.70;99.90
28761;DHT22;15917;50.014;8.352;2022-07-21T01:11:21;22.70;99.90
28761;DHT22;15917;50.014;8.352;2022-07-21T01:13:47;22.70;99.90
28761;DHT22;15917;50.014;8.352;2022-07-21T01:16:13;22.50;99.90
28761;DHT22;15917;50.014;8.352;2022-07-21T01:18:39;22.60;99.90
28761;DHT22;15917;50.014;8.352;2022-07-21T01:23:49;22.50;99.90
28761;DHT22;15917;50.014;8.352;2022-07-21T01:26:14;22.50;99.90
28761;DHT22;15917;50.014;8.352;2022-07-21T01:28:40;22.50;99.90
28761;DHT22;15917;50.014;8.352;2022-07-21T01:31:06;22.50;99.90
28761;DHT22;15917;50.014;8.352;2022-07-21T01:33:31;22.50;99.90
28761;DHT22;15917;50.014;8.352;2022-07-21T01:35:57;22.50;99.90
28761;DHT22;15917;50.014;8.352;2022-07-21T01:38:23;22.50;99.90
28761;DHT22;15917;50.014;8.352;2022-07-21T01:41:07;22.40;99.90
28761;DHT22;15917;50.014;8.352;2022-07-21T01:43:51;22.40;99.90
28761;DHT22;15917;50.014;8.352;2022-07-21T01:46:16;22.40;99.90
28761;DHT22;15917;50.014;8.352;2022-07-21T01:48:43;22.40;99.90
28761;DHT22;15917;50.014;8.352;2022-07-21T01:51:09;22.30;99.90
28761;DHT22;15917;50.014;8.352;2022-07-21T01:53:35;22.30;99.90
28761;DHT22;15917;50.014;8.352;2022-07-21T01:56:01;22.30;99.90
28761;DHT22;15917;50.014;8.352;2022-07-21T01:58:27;22.20;99.90
28761;DHT22;15917;50.014;8.352;2022-07-21T02:00:52;22.10;99.90
28761;DHT22;15917;50.014;8.352;2022-07-21T02:03:18;22.10;99.90
28761;DHT22;15917;50.014;8.352;2022-07-21T02:05:43;22.10;99.90
28761;DHT22;15917;50.014;8.352;2022-07-21T02:08:09;22.10;99.90
28761;DHT22;15917;50.014;8.352;2022-07-21T02:10:34;22.10;99.90
28761;DHT22;15917;50.014;8.352;2022-07-21T02:13:01;22.10;99.90
28761;DHT22;15917;50.014;8.352;2022-07-21T02:15:29;22.00;99.90
28761;DHT22;15917;50.014;8.352;2022-07-21T02:17:55;22.00;99.90
28761;DHT22;15917;50.014;8.352;2022-07-21T02:20:21;22.00;99.90
28761;DHT22;15917;50.014;8.352;2022-07-21T02:22:46;22.00;99.90
28761;DHT22;15917;50.014;8.352;2022-07-21T02:25:13;21.90;99.90
28761;DHT22;15917;50.014;8.352;2022-07-21T02:27:40;21.90;99.90
28761;DHT22;15917;50.014;8.352;2022-07-21T02:30:06;21.90;99.90
28761;DHT22;15917;50.014;8.352;2022-07-21T02:32:32;21.90;99.90
28761;DHT22;15917;50.014;8.352;2022-07-21T02:34:57;22.00;99.90
28761;DHT22;15917;50.014;8.352;2022-07-21T02:37:23;22.00;99.90
28761;DHT22;15917;50.014;8.352;2022-07-21T02:39:49;22.00;99.90
28761;DHT22;15917;50.014;8.352;2022-07-21T02:42:14;22.00;99.90
28761;DHT22;15917;50.014;8.352;2022-07-21T02:44:40;21.90;99.90
28761;DHT22;15917;50.014;8.352;2022-07-21T02:47:06;21.90;99.90
28761;DHT22;15917;50.014;8.352;2022-07-21T02:49:32;21.80;99.90
28761;DHT22;15917;50.014;8.352;2022-07-21T02:51:57;21.80;99.90
28761;DHT22;15917;50.014;8.352;2022-07-21T02:54:23;21.80;99.90
28761;DHT22;15917;50.014;8.352;2022-07-21T02:56:49;21.80;99.90
28761;DHT22;15917;50.014;8.352;2022-07-21T02:59:15;21.80;99.90
28761;DHT22;15917;50.014;8.352;2022-07-21T03:01:41;21.80;99.90
28761;DHT22;15917;50.014;8.352;2022-07-21T03:04:06;21.80;99.90
28761;DHT22;15917;50.014;8.352;2022-07-21T03:06:32;21.80;99.90
28761;DHT22;15917;50.014;8.352;2022-07-21T03:08:58;21.80;99.90
28761;DHT22;15917;50.014;8.352;2022-07-21T03:11:23;21.80;99.90
28761;DHT22;15917;50.014;8.352;2022-07-21T03:13:49;21.80;99.90
28761;DHT22;15917;50.014;8.352;2022-07-21T03:16:15;21.70;99.90
28761;DHT22;15917;50.014;8.352;2022-07-21T03:18:40;21.80;99.90
28761;DHT22;15917;50.014;8.352;2022-07-21T03:21:07;21.70;99.90
28761;DHT22;15917;50.014;8.352;2022-07-21T03:23:33;21.70;99.90
28761;DHT22;15917;50.014;8.352;2022-07-21T03:25:58;21.60;99.90
28761;DHT22;15917;50.014;8.352;2022-07-21T03:28:24;21.50;99.90
28761;DHT22;15917;50.014;8.352;2022-07-21T03:30:50;21.50;99.90
28761;DHT22;15917;50.014;8.352;2022-07-21T03:33:16;21.50;99.90
28761;DHT22;15917;50.014;8.352;2022-07-21T03:35:41;21.50;99.90
28761;DHT22;15917;50.014;8.352;2022-07-21T03:38:08;21.50;99.90
28761;DHT22;15917;50.014;8.352;2022-07-21T03:40:35;21.50;99.90
28761;DHT22;15917;50.014;8.352;2022-07-21T03:43:03;21.60;99.90
28761;DHT22;15917;50.014;8.352;2022-07-21T03:45:30;21.60;99.90
28761;DHT22;15917;50.014;8.352;2022-07-21T03:47:58;21.70;99.90
28761;DHT22;15917;50.014;8.352;2022-07-21T03:50:24;21.70;99.90
28761;DHT22;15917;50.014;8.352;2022-07-21T03:52:50;21.70;99.90
28761;DHT22;15917;50.014;8.352;2022-07-21T03:55:16;21.70;99.90
28761;DHT22;15917;50.014;8.352;2022-07-21T03:57:55;21.60;99.90
28761;DHT22;15917;50.014;8.352;2022-07-21T04:00:28;21.60;99.90
28761;DHT22;15917;50.014;8.352;2022-07-21T04:02:54;21.60;99.90
28761;DHT22;15917;50.014;8.352;2022-07-21T04:05:20;21.60;99.90
28761;DHT22;15917;50.014;8.352;2022-07-21T04:07:47;21.60;99.90
28761;DHT22;15917;50.014;8.352;2022-07-21T04:10:15;21.50;99.90
28761;DHT22;15917;50.014;8.352;2022-07-21T04:12:41;21.50;99.90
28761;DHT22;15917;50.014;8.352;2022-07-21T04:15:08;21.50;99.90
28761;DHT22;15917;50.014;8.352;2022-07-21T04:17:36;21.60;99.90
28761;DHT22;15917;50.014;8.352;2022-07-21T04:20:03;21.60;99.90
28761;DHT22;15917;50.014;8.352;2022-07-21T04:22:29;21.50;99.90
28761;DHT22;15917;50.014;8.352;2022-07-21T04:24:55;21.50;99.90
28761;DHT22;15917;50.014;8.352;2022-07-21T04:27:20;21.50;99.90
28761;DHT22;15917;50.014;8.352;2022-07-21T04:29:46;21.50;99.90
28761;DHT22;15917;50.014;8.352;2022-07-21T04:32:12;21.50;99.90
28761;DHT22;15917;50.014;8.352;2022-07-21T04:34:37;21.50;99.90
28761;DHT22;15917;50.014;8.352;2022-07-21T04:37:03;21.50;99.90
28761;DHT22;15917;50.014;8.352;2022-07-21T04:39:29;21.50;99.90
28761;DHT22;15917;50.014;8.352;2022-07-21T04:41:55;21.50;99.90
28761;DHT22;15917;50.014;8.352;2022-07-21T04:44:20;21.50;99.90
28761;DHT22;15917;50.014;8.352;2022-07-21T04:46:46;21.50;99.90
28761;DHT22;15917;50.014;8.352;2022-07-21T04:49:12;21.40;99.90
28761;DHT22;15917;50.014;8.352;2022-07-21T04:51:38;21.40;99.90
28761;DHT22;15917;50.014;8.352;2022-07-21T04:54:03;21.40;99.90
28761;DHT22;15917;50.014;8.352;2022-07-21T04:56:29;21.40;99.90
28761;DHT22;15917;50.014;8.352;2022-07-21T04:58:55;21.50;99.90
28761;DHT22;15917;50.014;8.352;2022-07-21T05:01:21;21.60;99.90
28761;DHT22;15917;50.014;8.352;2022-07-21T05:03:46;21.40;99.90
28761;DHT22;15917;50.014;8.352;2022-07-21T05:06:12;21.50;99.90
28761;DHT22;15917;50.014;8.352;2022-07-21T05:08:38;21.50;99.90
28761;DHT22;15917;50.014;8.352;2022-07-21T05:11:04;21.60;99.90
28761;DHT22;15917;50.014;8.352;2022-07-21T05:13:29;21.60;99.90
28761;DHT22;15917;50.014;8.352;2022-07-21T05:15:55;21.70;99.90
28761;DHT22;15917;50.014;8.352;2022-07-21T05:18:21;21.60;99.90
28761;DHT22;15917;50.014;8.352;2022-07-21T05:20:46;21.60;99.90
28761;DHT22;15917;50.014;8.352;2022-07-21T05:23:12;21.50;99.90
28761;DHT22;15917;50.014;8.352;2022-07-21T05:25:38;21.30;99.90
28761;DHT22;15917;50.014;8.352;2022-07-21T05:28:05;21.40;99.90
28761;DHT22;15917;50.014;8.352;2022-07-21T05:30:31;21.40;99.90
28761;DHT22;15917;50.014;8.352;2022-07-21T05:32:57;21.40;99.90
28761;DHT22;15917;50.014;8.352;2022-07-21T05:35:22;21.30;99.90
28761;DHT22;15917;50.014;8.352;2022-07-21T05:37:48;21.30;99.90
28761;DHT22;15917;50.014;8.352;2022-07-21T05:40:14;21.30;99.90
28761;DHT22;15917;50.014;8.352;2022-07-21T05:42:40;21.40;99.90
28761;DHT22;15917;50.014;8.352;2022-07-21T05:45:07;21.40;99.90
28761;DHT22;15917;50.014;8.352;2022-07-21T05:47:32;21.40;99.90
28761;DHT22;15917;50.014;8.352;2022-07-21T05:49:58;21.50;99.90
28761;DHT22;15917;50.014;8.352;2022-07-21T05:52:24;21.60;99.90
28761;DHT22;15917;50.014;8.352;2022-07-21T05:54:50;21.70;99.90
28761;DHT22;15917;50.014;8.352;2022-07-21T05:57:16;21.80;99.90
28761;DHT22;15917;50.014;8.352;2022-07-21T05:59:44;21.90;99.90
28761;DHT22;15917;50.014;8.352;2022-07-21T06:02:09;22.00;99.90
28761;DHT22;15917;50.014;8.352;2022-07-21T06:04:35;22.20;99.90
28761;DHT22;15917;50.014;8.352;2022-07-21T06:07:00;22.10;99.90
28761;DHT22;15917;50.014;8.352;2022-07-21T06:09:26;22.10;99.90
28761;DHT22;15917;50.014;8.352;2022-07-21T06:11:52;22.10;99.90
28761;DHT22;15917;50.014;8.352;2022-07-21T06:14:18;22.10;99.90
28761;DHT22;15917;50.014;8.352;2022-07-21T06:16:44;22.00;99.90
28761;DHT22;15917;50.014;8.352;2022-07-21T06:19:09;21.90;99.90
28761;DHT22;15917;50.014;8.352;2022-07-21T06:21:35;22.00;99.90
28761;DHT22;15917;50.014;8.352;2022-07-21T06:24:01;22.10;99.90
28761;DHT22;15917;50.014;8.352;2022-07-21T06:26:28;22.00;99.90
28761;DHT22;15917;50.014;8.352;2022-07-21T06:28:54;21.90;99.90
28761;DHT22;15917;50.014;8.352;2022-07-21T06:31:20;22.00;99.90
28761;DHT22;15917;50.014;8.352;2022-07-21T06:33:46;22.00;99.90
28761;DHT22;15917;50.014;8.352;2022-07-21T06:36:12;22.10;99.90
28761;DHT22;15917;50.014;8.352;2022-07-21T06:38:37;22.10;99.90
28761;DHT22;15917;50.014;8.352;2022-07-21T06:41:03;22.20;99.90
28761;DHT22;15917;50.014;8.352;2022-07-21T06:43:29;22.30;99.90
28761;DHT22;15917;50.014;8.352;2022-07-21T06:45:55;22.30;99.90
28761;DHT22;15917;50.014;8.352;2022-07-21T06:48:21;22.30;99.90
28761;DHT22;15917;50.014;8.352;2022-07-21T06:50:50;22.30;99.90
28761;DHT22;15917;50.014;8.352;2022-07-21T06:53:16;22.30;99.90
28761;DHT22;15917;50.014;8.352;2022-07-21T06:55:42;22.20;99.90
28761;DHT22;15917;50.014;8.352;2022-07-21T06:58:19;22.20;99.90
28761;DHT22;15917;50.014;8.352;2022-07-21T07:00:45;22.20;99.90
28761;DHT22;15917;50.014;8.352;2022-07-21T07:03:12;22.20;99.90
28761;DHT22;15917;50.014;8.352;2022-07-21T07:05:38;22.30;99.90
28761;DHT22;15917;50.014;8.352;2022-07-21T07:08:04;22.50;99.90
28761;DHT22;15917;50.014;8.352;2022-07-21T07:10:30;22.50;99.90
28761;DHT22;15917;50.014;8.352;2022-07-21T07:12:56;22.50;99.90
28761;DHT22;15917;50.014;8.352;2022-07-21T07:15:23;22.60;99.90
28761;DHT22;15917;50.014;8.352;2022-07-21T07:17:49;22.70;99.90
28761;DHT22;15917;50.014;8.352;2022-07-21T07:20:15;22.70;99.90
28761;DHT22;15917;50.014;8.352;2022-07-21T07:22:41;22.70;99.90
28761;DHT22;15917;50.014;8.352;2022-07-21T07:25:07;22.70;99.90
28761;DHT22;15917;50.014;8.352;2022-07-21T07:27:33;22.60;99.90
28761;DHT22;15917;50.014;8.352;2022-07-21T07:29:59;22.70;99.90
28761;DHT22;15917;50.014;8.352;2022-07-21T07:32:24;22.70;99.90
28761;DHT22;15917;50.014;8.352;2022-07-21T07:34:50;22.80;99.90
28761;DHT22;15917;50.014;8.352;2022-07-21T07:37:16;22.80;99.90
28761;DHT22;15917;50.014;8.352;2022-07-21T07:39:41;22.90;99.90
28761;DHT22;15917;50.014;8.352;2022-07-21T07:42:07;22.80;99.90
28761;DHT22;15917;50.014;8.352;2022-07-21T07:44:32;22.90;99.90
28761;DHT22;15917;50.014;8.352;2022-07-21T07:46:58;22.90;99.90
28761;DHT22;15917;50.014;8.352;2022-07-21T07:49:30;23.00;99.90
28761;DHT22;15917;50.014;8.352;2022-07-21T07:51:57;23.00;99.90
28761;DHT22;15917;50.014;8.352;2022-07-21T07:54:23;23.10;99.90
28761;DHT22;15917;50.014;8.352;2022-07-21T07:56:49;23.30;99.90
28761;DHT22;15917;50.014;8.352;2022-07-21T07:59:14;23.40;99.90
28761;DHT22;15917;50.014;8.352;2022-07-21T08:01:40;23.40;99.90
28761;DHT22;15917;50.014;8.352;2022-07-21T08:04:07;23.50;99.90
28761;DHT22;15917;50.014;8.352;2022-07-21T08:06:33;23.60;99.90
28761;DHT22;15917;50.014;8.352;2022-07-21T08:08:59;23.50;99.90
28761;DHT22;15917;50.014;8.352;2022-07-21T08:11:25;23.30;99.90
28761;DHT22;15917;50.014;8.352;2022-07-21T08:13:51;23.40;99.90
28761;DHT22;15917;50.014;8.352;2022-07-21T08:16:17;23.30;99.90
28761;DHT22;15917;50.014;8.352;2022-07-21T08:18:43;23.40;99.90
28761;DHT22;15917;50.014;8.352;2022-07-21T08:21:10;23.40;99.90
28761;DHT22;15917;50.014;8.352;2022-07-21T08:23:36;23.60;99.90
28761;DHT22;15917;50.014;8.352;2022-07-21T08:26:01;23.80;99.90
28761;DHT22;15917;50.014;8.352;2022-07-21T08:28:27;23.90;99.90
28761;DHT22;15917;50.014;8.352;2022-07-21T08:30:53;23.80;99.90
28761;DHT22;15917;50.014;8.352;2022-07-21T08:33:18;23.80;99.90
28761;DHT22;15917;50.014;8.352;2022-07-21T08:35:44;23.70;99.90
28761;DHT22;15917;50.014;8.352;2022-07-21T08:38:11;23.60;99.90
28761;DHT22;15917;50.014;8.352;2022-07-21T08:40:44;23.60;99.90
28761;DHT22;15917;50.014;8.352;2022-07-21T08:43:10;23.60;99.90
28761;DHT22;15917;50.014;8.352;2022-07-21T08:45:38;23.70;99.90
28761;DHT22;15917;50.014;8.352;2022-07-21T08:48:04;23.80;99.90
28761;DHT22;15917;50.014;8.352;2022-07-21T08:50:34;23.80;99.90
28761;DHT22;15917;50.014;8.352;2022-07-21T08:53:00;23.80;99.90
28761;DHT22;15917;50.014;8.352;2022-07-21T08:55:34;23.80;99.90
28761;DHT22;15917;50.014;8.352;2022-07-21T08:58:00;23.90;99.90
28761;DHT22;15917;50.014;8.352;2022-07-21T09:00:26;24.10;99.90
28761;DHT22;15917;50.014;8.352;2022-07-21T09:03:27;24.20;99.90
28761;DHT22;15917;50.014;8.352;2022-07-21T09:06:12;24.50;99.90
28761;DHT22;15917;50.014;8.352;2022-07-21T09:08:42;24.50;99.90
28761;DHT22;15917;50.014;8.352;2022-07-21T09:11:18;24.70;99.90
28761;DHT22;15917;50.014;8.352;2022-07-21T09:13:46;25.00;99.90
28761;DHT22;15917;50.014;8.352;2022-07-21T09:16:13;25.20;99.90
28761;DHT22;15917;50.014;8.352;2022-07-21T09:18:50;25.40;99.90
28761;DHT22;15917;50.014;8.352;2022-07-21T09:21:17;25.40;99.90
28761;DHT22;15917;50.014;8.352;2022-07-21T09:23:43;25.50;99.90
28761;DHT22;15917;50.014;8.352;2022-07-21T09:26:09;25.50;99.90
28761;DHT22;15917;50.014;8.352;2022-07-21T09:28:35;25.60;99.90
28761;DHT22;15917;50.014;8.352;2022-07-21T09:31:06;25.80;99.90
28761;DHT22;15917;50.014;8.352;2022-07-21T09:38:37;25.60;99.90
28761;DHT22;15917;50.014;8.352;2022-07-21T09:41:17;25.50;99.90
28761;DHT22;15917;50.014;8.352;2022-07-21T09:43:48;25.40;99.90
28761;DHT22;15917;50.014;8.352;2022-07-21T09:48:48;25.30;99.90
28761;DHT22;15917;50.014;8.352;2022-07-21T09:51:31;25.30;99.90
28761;DHT22;15917;50.014;8.352;2022-07-21T09:54:10;25.40;99.90
28761;DHT22;15917;50.014;8.352;2022-07-21T09:56:44;25.50;99.90
28761;DHT22;15917;50.014;8.352;2022-07-21T09:59:12;25.70;99.90
28761;DHT22;15917;50.014;8.352;2022-07-21T10:01:38;25.80;99.90
28761;DHT22;15917;50.014;8.352;2022-07-21T10:04:04;25.80;99.90
28761;DHT22;15917;50.014;8.352;2022-07-21T10:06:36;26.00;99.90
28761;DHT22;15917;50.014;8.352;2022-07-21T10:09:04;26.20;99.90
28761;DHT22;15917;50.014;8.352;2022-07-21T10:11:30;26.30;99.90
28761;DHT22;15917;50.014;8.352;2022-07-21T10:13:56;26.60;99.90
28761;DHT22;15917;50.014;8.352;2022-07-21T10:16:22;26.60;99.90
28761;DHT22;15917;50.014;8.352;2022-07-21T10:19:08;26.70;99.90
28761;DHT22;15917;50.014;8.352;2022-07-21T10:22:04;26.70;99.90
28761;DHT22;15917;50.014;8.352;2022-07-21T10:24:30;26.50;99.90
28761;DHT22;15917;50.014;8.352;2022-07-21T10:27:07;26.50;99.90
28761;DHT22;15917;50.014;8.352;2022-07-21T10:32:21;26.60;99.90
28761;DHT22;15917;50.014;8.352;2022-07-21T10:34:47;26.50;99.90
28761;DHT22;15917;50.014;8.352;2022-07-21T10:54:17;26.90;99.90
28761;DHT22;15917;50.014;8.352;2022-07-21T10:57:28;26.60;99.90
28761;DHT22;15917;50.014;8.352;2022-07-21T11:04:15;26.30;99.90
28761;DHT22;15917;50.014;8.352;2022-07-21T11:07:10;26.20;99.90
28761;DHT22;15917;50.014;8.352;2022-07-21T11:10:20;26.20;99.90
28761;DHT22;15917;50.014;8.352;2022-07-21T11:22:20;26.60;99.90
28761;DHT22;15917;50.014;8.352;2022-07-21T11:24:49;26.50;99.90
28761;DHT22;15917;50.014;8.352;2022-07-21T11:27:20;26.40;99.90
28761;DHT22;15917;50.014;8.352;2022-07-21T11:29:48;26.30;99.90
28761;DHT22;15917;50.014;8.352;2022-07-21T11:32:15;26.30;99.90
28761;DHT22;15917;50.014;8.352;2022-07-21T11:34:47;26.40;99.90
28761;DHT22;15917;50.014;8.352;2022-07-21T11:37:19;26.30;99.90
28761;DHT22;15917;50.014;8.352;2022-07-21T11:39:45;26.40;99.90
28761;DHT22;15917;50.014;8.352;2022-07-21T11:42:13;26.60;99.90
28761;DHT22;15917;50.014;8.352;2022-07-21T11:44:42;26.80;99.90
28761;DHT22;15917;50.014;8.352;2022-07-21T11:47:11;27.20;99.90
28761;DHT22;15917;50.014;8.352;2022-07-21T11:49:37;27.50;99.90
28761;DHT22;15917;50.014;8.352;2022-07-21T11:52:06;27.70;99.90
28761;DHT22;15917;50.014;8.352;2022-07-21T11:54:49;28.00;99.90
28761;DHT22;15917;50.014;8.352;2022-07-21T11:57:18;28.20;98.00
28761;DHT22;15917;50.014;8.352;2022-07-21T11:59:45;28.20;97.70
28761;DHT22;15917;50.014;8.352;2022-07-21T12:02:18;28.30;97.80
28761;DHT22;15917;50.014;8.352;2022-07-21T12:09:50;28.80;95.80
28761;DHT22;15917;50.014;8.352;2022-07-21T12:12:31;28.80;95.40
28761;DHT22;15917;50.014;8.352;2022-07-21T12:14:57;28.80;95.40
28761;DHT22;15917;50.014;8.352;2022-07-21T12:20:12;28.20;96.10
28761;DHT22;15917;50.014;8.352;2022-07-21T12:22:44;28.00;96.00
28761;DHT22;15917;50.014;8.352;2022-07-21T12:25:13;27.80;96.40
28761;DHT22;15917;50.014;8.352;2022-07-21T12:27:42;27.80;96.50
28761;DHT22;15917;50.014;8.352;2022-07-21T12:30:10;28.00;95.70
28761;DHT22;15917;50.014;8.352;2022-07-21T12:32:53;28.40;94.20
28761;DHT22;15917;50.014;8.352;2022-07-21T12:35:26;28.70;93.60
28761;DHT22;15917;50.014;8.352;2022-07-21T12:38:03;29.00;93.00
28761;DHT22;15917;50.014;8.352;2022-07-21T12:40:30;29.10;93.00
28761;DHT22;15917;50.014;8.352;2022-07-21T12:43:19;29.10;93.60
28761;DHT22;15917;50.014;8.352;2022-07-21T12:48:12;28.70;93.60
28761;DHT22;15917;50.014;8.352;2022-07-21T12:50:38;28.50;93.60
28761;DHT22;15917;50.014;8.352;2022-07-21T12:53:10;28.30;93.90
28761;DHT22;15917;50.014;8.352;2022-07-21T12:55:36;28.20;94.40
28761;DHT22;15917;50.014;8.352;2022-07-21T12:58:02;28.20;94.50
28761;DHT22;15917;50.014;8.352;2022-07-21T13:00:28;28.20;94.00
28761;DHT22;15917;50.014;8.352;2022-07-21T13:02:55;28.20;94.20
28761;DHT22;15917;50.014;8.352;2022-07-21T13:05:22;28.20;94.10
28761;DHT22;15917;50.014;8.352;2022-07-21T13:07:48;28.20;94.50
28761;DHT22;15917;50.014;8.352;2022-07-21T13:10:15;28.10;94.30
28761;DHT22;15917;50.014;8.352;2022-07-21T13:12:41;28.10;94.40
28761;DHT22;15917;50.014;8.352;2022-07-21T13:15:07;28.10;95.00
28761;DHT22;15917;50.014;8.352;2022-07-21T13:17:33;28.20;95.40
28761;DHT22;15917;50.014;8.352;2022-07-21T13:19:58;28.50;95.30
28761;DHT22;15917;50.014;8.352;2022-07-21T13:22:24;28.70;94.70
28761;DHT22;15917;50.014;8.352;2022-07-21T13:24:50;28.70;94.40
28761;DHT22;15917;50.014;8.352;2022-07-21T13:27:15;28.80;94.80
28761;DHT22;15917;50.014;8.352;2022-07-21T13:29:41;28.60;94.50
28761;DHT22;15917;50.014;8.352;2022-07-21T13:32:07;28.60;94.30
28761;DHT22;15917;50.014;8.352;2022-07-21T13:34:34;28.80;93.40
28761;DHT22;15917;50.014;8.352;2022-07-21T13:37:00;28.80;92.80
28761;DHT22;15917;50.014;8.352;2022-07-21T13:39:25;29.10;92.70
28761;DHT22;15917;50.014;8.352;2022-07-21T13:41:55;29.40;92.60
28761;DHT22;15917;50.014;8.352;2022-07-21T13:44:21;29.80;92.60
28761;DHT22;15917;50.014;8.352;2022-07-21T13:46:47;30.00;90.90
28761;DHT22;15917;50.014;8.352;2022-07-21T13:49:13;30.20;90.90
28761;DHT22;15917;50.014;8.352;2022-07-21T13:51:38;30.50;90.60
28761;DHT22;15917;50.014;8.352;2022-07-21T13:54:04;30.70;90.00
28761;DHT22;15917;50.014;8.352;2022-07-21T13:56:30;30.80;88.70
28761;DHT22;15917;50.014;8.352;2022-07-21T13:58:56;30.70;88.10
28761;DHT22;15917;50.014;8.352;2022-07-21T14:01:22;30.50;88.70
28761;DHT22;15917;50.014;8.352;2022-07-21T14:03:49;30.30;88.80
28761;DHT22;15917;50.014;8.352;2022-07-21T14:06:16;30.00;90.10
28761;DHT22;15917;50.014;8.352;2022-07-21T14:08:42;29.70;90.90
28761;DHT22;15917;50.014;8.352;2022-07-21T14:11:09;29.40;91.60
28761;DHT22;15917;50.014;8.352;2022-07-21T14:13:36;29.30;91.90
28761;DHT22;15917;50.014;8.352;2022-07-21T14:16:02;29.20;92.30
28761;DHT22;15917;50.014;8.352;2022-07-21T14:18:28;29.20;92.10
28761;DHT22;15917;50.014;8.352;2022-07-21T14:20:54;29.10;92.30
28761;DHT22;15917;50.014;8.352;2022-07-21T14:23:23;29.10;92.50
28761;DHT22;15917;50.014;8.352;2022-07-21T14:25:49;29.10;92.50
28761;DHT22;15917;50.014;8.352;2022-07-21T14:28:16;29.40;92.10
28761;DHT22;15917;50.014;8.352;2022-07-21T14:30:45;29.70;91.70
28761;DHT22;15917;50.014;8.352;2022-07-21T14:33:11;30.00;91.00
28761;DHT22;15917;50.014;8.352;2022-07-21T14:35:37;30.30;90.40
28761;DHT22;15917;50.014;8.352;2022-07-21T14:38:03;30.50;90.50
28761;DHT22;15917;50.014;8.352;2022-07-21T14:40:30;30.50;87.70
28761;DHT22;15917;50.014;8.352;2022-07-21T14:43:03;30.20;87.80
28761;DHT22;15917;50.014;8.352;2022-07-21T14:45:29;30.10;88.60
28761;DHT22;15917;50.014;8.352;2022-07-21T14:48:04;30.10;89.40
28761;DHT22;15917;50.014;8.352;2022-07-21T14:50:33;30.00;89.70
28761;DHT22;15917;50.014;8.352;2022-07-21T14:52:59;29.90;90.00
28761;DHT22;15917;50.014;8.352;2022-07-21T14:55:26;29.80;90.10
28761;DHT22;15917;50.014;8.352;2022-07-21T14:57:56;30.00;90.40
28761;DHT22;15917;50.014;8.352;2022-07-21T15:00:23;30.00;89.50
28761;DHT22;15917;50.014;8.352;2022-07-21T15:02:53;29.90;89.60
28761;DHT22;15917;50.014;8.352;2022-07-21T15:05:19;30.00;89.70
28761;DHT22;15917;50.014;8.352;2022-07-21T15:07:44;29.80;89.40
28761;DHT22;15917;50.014;8.352;2022-07-21T15:10:10;29.60;89.90
28761;DHT22;15917;50.014;8.352;2022-07-21T15:12:36;29.40;89.20
28761;DHT22;15917;50.014;8.352;2022-07-21T15:15:02;29.20;90.10
28761;DHT22;15917;50.014;8.352;2022-07-21T15:17:28;29.20;90.50
28761;DHT22;15917;50.014;8.352;2022-07-21T15:19:55;29.10;90.50
28761;DHT22;15917;50.014;8.352;2022-07-21T15:22:20;29.10;90.50
28761;DHT22;15917;50.014;8.352;2022-07-21T15:24:46;28.90;91.00
28761;DHT22;15917;50.014;8.352;2022-07-21T15:27:11;28.70;91.40
28761;DHT22;15917;50.014;8.352;2022-07-21T15:29:37;28.40;91.20
28761;DHT22;15917;50.014;8.352;2022-07-21T15:32:03;28.40;91.50
28761;DHT22;15917;50.014;8.352;2022-07-21T15:34:29;28.30;91.60
28761;DHT22;15917;50.014;8.352;2022-07-21T15:36:55;28.30;91.70
28761;DHT22;15917;50.014;8.352;2022-07-21T15:39:20;28.30;91.80
28761;DHT22;15917;50.014;8.352;2022-07-21T15:41:47;28.30;91.80
28761;DHT22;15917;50.014;8.352;2022-07-21T15:44:13;28.30;92.20
28761;DHT22;15917;50.014;8.352;2022-07-21T15:46:39;28.40;92.20
28761;DHT22;15917;50.014;8.352;2022-07-21T15:49:07;28.30;92.10
28761;DHT22;15917;50.014;8.352;2022-07-21T15:51:33;28.30;91.80
28761;DHT22;15917;50.014;8.352;2022-07-21T15:53:59;28.20;92.00
28761;DHT22;15917;50.014;8.352;2022-07-21T15:56:24;28.20;91.90
28761;DHT22;15917;50.014;8.352;2022-07-21T15:58:50;28.10;92.30
28761;DHT22;15917;50.014;8.352;2022-07-21T16:01:35;28.10;92.60
28761;DHT22;15917;50.014;8.352;2022-07-21T16:04:00;28.00;92.30
28761;DHT22;15917;50.014;8.352;2022-07-21T16:06:26;28.00;92.50
28761;DHT22;15917;50.014;8.352;2022-07-21T16:08:52;28.00;92.40
28761;DHT22;15917;50.014;8.352;2022-07-21T16:11:18;28.00;92.30
28761;DHT22;15917;50.014;8.352;2022-07-21T16:13:43;27.90;92.00
28761;DHT22;15917;50.014;8.352;2022-07-21T16:16:09;27.80;92.20
28761;DHT22;15917;50.014;8.352;2022-07-21T16:18:34;27.80;92.20
28761;DHT22;15917;50.014;8.352;2022-07-21T16:21:00;27.70;92.30
28761;DHT22;15917;50.014;8.352;2022-07-21T16:23:26;27.80;92.40
28761;DHT22;15917;50.014;8.352;2022-07-21T16:25:51;27.60;92.50